Time;durP1;ratioP1;P1;durP2;ratioP2;P2;SDS_P1;SDS_P2;PMS_P1;PMS_P2;Temp;Humidity;BMP_temperature;BMP_pressure;BME280_temperature;BME280_humidity;BME280_pressure;Samples;Min_cycle;Max_cycle;Signal;HPM_P1;HPM_P2
2022/05/31 00:02:00;;;;;;;0.20;0.20;;;10.60;99.90;;;;;;5017230;28;20028;-77
2022/05/31 00:04:27;;;;;;;0.20;0.20;;;10.50;99.90;;;;;;5033612;28;20099;-77
2022/05/31 00:06:53;;;;;;;0.20;0.20;;;10.50;99.90;;;;;;5035203;28;20112;-77
2022/05/31 00:09:19;;;;;;;0.17;0.17;;;10.60;99.90;;;;;;5033735;28;20056;-75
2022/05/31 00:11:45;;;;;;;0.20;0.20;;;10.60;99.90;;;;;;5031428;28;20029;-77
2022/05/31 00:14:13;;;;;;;0.20;0.20;;;10.70;99.90;;;;;;5030415;28;20017;-76
2022/05/31 00:16:39;;;;;;;0.20;0.20;;;10.80;99.90;;;;;;5030238;28;20027;-76
2022/05/31 00:19:05;;;;;;;0.20;0.20;;;11.00;99.90;;;;;;5013661;28;20036;-76
2022/05/31 00:21:39;;;;;;;0.20;0.20;;;11.10;99.90;;;;;;5031368;28;20068;-76
2022/05/31 00:24:07;;;;;;;0.20;0.20;;;11.20;99.90;;;;;;5030327;28;20029;-76
2022/05/31 00:26:32;;;;;;;0.20;0.20;;;11.20;99.90;;;;;;5031330;28;20021;-76
2022/05/31 00:28:58;;;;;;;0.20;0.20;;;11.30;99.90;;;;;;5030081;28;20411;-76
2022/05/31 00:31:24;;;;;;;0.85;0.85;;;11.20;99.90;;;;;;5031400;28;20026;-76
2022/05/31 00:33:50;;;;;;;0.10;0.10;;;10.90;99.90;;;;;;5031299;28;20026;-76
2022/05/31 00:36:16;;;;;;;0.20;0.20;;;10.90;99.90;;;;;;5030148;28;20037;-76
2022/05/31 00:38:42;;;;;;;0.10;0.10;;;11.00;99.90;;;;;;5013634;28;20119;-76
2022/05/31 00:41:26;;;;;;;0.20;0.20;;;10.90;99.90;;;;;;5013728;28;20374;-76
2022/05/31 00:44:07;;;;;;;0.20;0.20;;;10.90;99.90;;;;;;5030018;28;20022;-76
2022/05/31 00:46:44;;;;;;;0.20;0.20;;;10.90;99.90;;;;;;5031884;28;20024;-76
2022/05/31 00:49:14;;;;;;;0.10;0.10;;;10.80;99.90;;;;;;5034817;28;20053;-76
2022/05/31 00:51:49;;;;;;;0.20;0.20;;;10.90;99.90;;;;;;5017031;28;20481;-76
2022/05/31 00:54:19;;;;;;;0.30;0.30;;;11.10;99.90;;;;;;5033559;28;20025;-76
2022/05/31 00:56:47;;;;;;;0.20;0.20;;;11.00;99.90;;;;;;5034541;28;20025;-76
2022/05/31 00:59:18;;;;;;;0.20;0.20;;;11.00;99.90;;;;;;5033367;28;20029;-76
2022/05/31 01:01:47;;;;;;;0.20;0.20;;;11.10;99.90;;;;;;5034548;28;20022;-76
2022/05/31 01:04:14;;;;;;;0.20;0.20;;;11.00;99.90;;;;;;5034599;28;20021;-76
2022/05/31 01:06:40;;;;;;;0.20;0.20;;;11.00;99.90;;;;;;5034293;28;20056;-76
2022/05/31 01:09:06;;;;;;;0.20;0.20;;;11.00;99.90;;;;;;5033110;28;20033;-76
2022/05/31 01:11:38;;;;;;;0.20;0.20;;;10.90;99.90;;;;;;5034644;28;20496;-77
2022/05/31 01:14:04;;;;;;;;;;;10.90;99.90;;;;;;5017149;28;20025;-76
2022/05/31 01:16:30;;;;;;;0.20;0.20;;;11.00;99.90;;;;;;5034135;28;20360;-76
2022/05/31 01:18:57;;;;;;;0.20;0.20;;;10.90;99.90;;;;;;5034184;28;20028;-76
2022/05/31 01:21:23;;;;;;;0.10;0.10;;;11.00;99.90;;;;;;5034080;28;20025;-76
2022/05/31 01:24:00;;;;;;;0.10;0.10;;;11.10;99.90;;;;;;5016415;28;20413;-76
2022/05/31 01:26:53;;;;;;;0.10;0.10;;;11.20;99.90;;;;;;5033943;28;20389;-76
2022/05/31 01:29:30;;;;;;;;;;;11.30;99.90;;;;;;5033142;28;20147;-76
2022/05/31 01:31:59;;;;;;;0.10;0.10;;;11.20;99.90;;;;;;5032674;28;19905;-76
2022/05/31 01:34:52;;;;;;;0.20;0.20;;;11.20;99.90;;;;;;5034279;28;20036;-76
2022/05/31 01:37:25;;;;;;;0.10;0.10;;;11.00;99.90;;;;;;5032349;28;20033;-76
2022/05/31 01:40:01;;;;;;;0.10;0.10;;;11.00;99.90;;;;;;5032650;28;20026;-76
2022/05/31 01:42:36;;;;;;;0.20;0.20;;;11.20;99.90;;;;;;5016475;28;20030;-76
2022/05/31 01:45:18;;;;;;;0.20;0.20;;;11.00;99.90;;;;;;5015960;28;20030;-76
2022/05/31 01:47:44;;;;;;;9.73;9.15;;;10.70;99.90;;;;;;5032332;28;20021;-76
2022/05/31 01:50:13;;;;;;;0.65;0.65;;;10.70;99.90;;;;;;5015731;28;20056;-76
2022/05/31 01:52:40;;;;;;;0.20;0.20;;;10.40;99.90;;;;;;5033774;28;20030;-76
2022/05/31 01:55:08;;;;;;;0.20;0.20;;;10.30;99.90;;;;;;5015812;28;20029;-76
2022/05/31 01:57:35;;;;;;;0.50;0.50;;;10.30;99.90;;;;;;5033508;28;20029;-76
2022/05/31 02:00:08;;;;;;;0.13;0.13;;;10.40;99.90;;;;;;5032267;28;20029;-76
2022/05/31 02:02:34;;;;;;;0.20;0.20;;;10.50;99.90;;;;;;5032227;28;20518;-76
2022/05/31 02:04:59;;;;;;;0.40;0.40;;;10.50;99.90;;;;;;5015605;28;20059;-76
2022/05/31 02:07:26;;;;;;;0.10;0.10;;;10.70;99.90;;;;;;5031829;28;20022;-76
2022/05/31 02:09:54;;;;;;;0.20;0.20;;;10.70;99.90;;;;;;5032105;28;20074;-76
2022/05/31 02:12:22;;;;;;;0.20;0.20;;;10.60;99.90;;;;;;5015515;28;20032;-76
2022/05/31 02:14:48;;;;;;;0.20;0.20;;;10.40;99.90;;;;;;5031988;28;20061;-76
2022/05/31 02:17:16;;;;;;;0.20;0.20;;;10.60;99.90;;;;;;5032906;28;20040;-76
2022/05/31 02:19:42;;;;;;;0.20;0.20;;;10.50;99.90;;;;;;5032018;28;20032;-76
2022/05/31 02:22:12;;;;;;;0.20;0.20;;;10.40;99.90;;;;;;5033015;28;20029;-76
2022/05/31 02:24:38;;;;;;;0.20;0.20;;;10.30;99.90;;;;;;5031886;28;20109;-76
2022/05/31 02:27:05;;;;;;;0.10;0.10;;;10.40;99.90;;;;;;5032966;28;20128;-76
2022/05/31 02:29:34;;;;;;;0.10;0.10;;;10.50;99.90;;;;;;5031643;28;20469;-76
2022/05/31 02:32:02;;;;;;;0.20;0.20;;;10.80;99.90;;;;;;5015248;28;20461;-76
2022/05/31 02:34:32;;;;;;;0.15;0.15;;;10.80;99.90;;;;;;5033066;28;20393;-76
2022/05/31 02:36:57;;;;;;;0.20;0.20;;;10.70;99.90;;;;;;5014848;28;20087;-76
2022/05/31 02:39:24;;;;;;;0.28;0.28;;;10.70;99.90;;;;;;5032728;28;20473;-76
2022/05/31 02:41:51;;;;;;;0.10;0.10;;;10.60;99.90;;;;;;5031380;28;20079;-76
2022/05/31 02:44:18;;;;;;;0.10;0.10;;;10.70;99.90;;;;;;5032605;28;20022;-76
2022/05/31 02:46:44;;;;;;;0.10;0.10;;;11.00;99.90;;;;;;5032514;28;20076;-76
2022/05/31 02:49:10;;;;;;;0.10;0.10;;;11.20;99.90;;;;;;5032507;28;20022;-76
2022/05/31 02:51:39;;;;;;;0.20;0.20;;;11.30;99.90;;;;;;5032573;28;20026;-76
2022/05/31 02:54:05;;;;;;;0.30;0.30;;;11.40;99.90;;;;;;5032445;28;20104;-76
2022/05/31 02:56:32;;;;;;;0.20;0.20;;;11.50;99.90;;;;;;5032268;28;20473;-76
2022/05/31 02:58:58;;;;;;;0.10;0.10;;;11.50;99.90;;;;;;5031014;28;20021;-76
2022/05/31 03:01:26;;;;;;;0.20;0.20;;;11.40;99.90;;;;;;5032302;28;20119;-76
2022/05/31 03:03:51;;;;;;;0.20;0.20;;;11.30;99.90;;;;;;5032335;28;20080;-76
2022/05/31 03:06:19;;;;;;;0.17;0.17;;;11.30;99.90;;;;;;5031017;28;20516;-76
2022/05/31 03:08:45;;;;;;;0.20;0.20;;;11.20;99.90;;;;;;5031885;28;20022;-76
2022/05/31 03:11:27;;;;;;;0.10;0.10;;;11.20;99.90;;;;;;5014544;28;20030;-76
2022/05/31 03:13:58;;;;;;;0.20;0.20;;;11.20;99.90;;;;;;5032463;28;20405;-76
2022/05/31 03:16:25;;;;;;;0.20;0.20;;;11.10;99.90;;;;;;5030807;28;20029;-76
2022/05/31 03:19:02;;;;;;;0.20;0.20;;;11.00;99.90;;;;;;5030897;28;20025;-76
2022/05/31 03:21:35;;;;;;;0.20;0.20;;;11.10;99.90;;;;;;5031909;28;20480;-76
2022/05/31 03:24:10;;;;;;;0.20;0.20;;;11.10;99.90;;;;;;5030826;28;20021;-76
2022/05/31 03:26:40;;;;;;;0.30;0.30;;;11.30;99.90;;;;;;5032150;28;20465;-77
2022/05/31 03:29:06;;;;;;;0.10;0.10;;;11.10;99.90;;;;;;5014272;28;20389;-77
2022/05/31 03:31:32;;;;;;;0.20;0.20;;;11.00;99.90;;;;;;5031940;28;20382;-77
2022/05/31 03:33:58;;;;;;;0.15;0.15;;;10.70;99.90;;;;;;5030897;28;20022;-77
2022/05/31 03:36:24;;;;;;;0.10;0.10;;;10.70;99.90;;;;;;5030504;28;20068;-77
2022/05/31 03:38:50;;;;;;;0.20;0.20;;;11.00;99.90;;;;;;5031964;28;20022;-77
2022/05/31 03:41:15;;;;;;;0.10;0.10;;;11.10;99.90;;;;;;5030548;28;20125;-77
2022/05/31 03:43:42;;;;;;;0.20;0.20;;;11.30;99.90;;;;;;5030545;28;20124;-77
2022/05/31 03:46:16;;;;;;;0.32;0.32;;;11.20;99.90;;;;;;5030521;28;20092;-77
2022/05/31 03:48:41;;;;;;;0.20;0.20;;;10.60;99.90;;;;;;5030359;28;20477;-77
2022/05/31 03:51:10;;;;;;;0.60;0.60;;;10.20;99.90;;;;;;5031962;28;20029;-77
2022/05/31 03:53:37;;;;;;;0.20;0.20;;;10.30;99.90;;;;;;5032259;28;20365;-77
2022/05/31 03:56:05;;;;;;;0.20;0.20;;;10.30;99.90;;;;;;5031594;28;20037;-78
2022/05/31 03:58:31;;;;;;;0.20;0.20;;;10.30;99.90;;;;;;5034682;28;20036;-78
2022/05/31 04:00:57;;;;;;;0.15;0.15;;;10.40;99.90;;;;;;5035420;28;20473;-78
2022/05/31 04:03:24;;;;;;;0.20;0.20;;;10.50;99.90;;;;;;5037094;28;20025;-77
2022/05/31 04:05:50;;;;;;;0.10;0.10;;;10.40;99.90;;;;;;5036514;28;20105;-77
2022/05/31 04:08:19;;;;;;;0.17;0.17;;;10.40;99.90;;;;;;5036071;28;20034;-77
2022/05/31 04:10:45;;;;;;;0.20;0.20;;;10.60;99.90;;;;;;5035154;28;20385;-77
2022/05/31 04:13:13;;;;;;;0.30;0.30;;;10.60;99.90;;;;;;5035305;28;20053;-78
2022/05/31 04:15:39;;;;;;;0.10;0.10;;;10.80;99.90;;;;;;5036464;28;20528;-77
2022/05/31 04:18:06;;;;;;;0.20;0.20;;;10.70;99.90;;;;;;5036471;28;20045;-78
2022/05/31 04:20:32;;;;;;;0.20;0.20;;;10.60;99.90;;;;;;5019339;28;20032;-78
2022/05/31 04:25:47;;;;;;;0.20;0.20;;;10.80;99.90;;;;;;5029632;28;20033;-78
2022/05/31 04:28:12;;;;;;;0.10;0.10;;;10.90;99.90;;;;;;5038019;28;20032;-77
2022/05/31 04:30:43;;;;;;;0.20;0.20;;;10.90;99.90;;;;;;5039203;28;20504;-78
2022/05/31 04:33:09;;;;;;;0.20;0.20;;;10.90;99.90;;;;;;5039745;28;20440;-77
2022/05/31 04:35:34;;;;;;;0.10;0.10;;;10.90;99.90;;;;;;5038147;28;20029;-77
2022/05/31 04:38:00;;;;;;;0.20;0.20;;;11.10;99.90;;;;;;5049889;22;20171;-72
2022/05/31 04:40:26;;;;;;;0.15;0.15;;;10.90;99.90;;;;;;5035478;28;20045;-72
2022/05/31 04:42:52;;;;;;;0.20;0.20;;;11.00;99.90;;;;;;5035322;28;20040;-72
2022/05/31 04:45:19;;;;;;;0.20;0.20;;;11.00;99.90;;;;;;5034992;28;20092;-72
2022/05/31 04:47:45;;;;;;;0.20;0.20;;;11.10;99.90;;;;;;5017109;28;20021;-72
2022/05/31 04:50:11;;;;;;;0.20;0.20;;;11.00;99.90;;;;;;5033559;28;20366;-72
2022/05/31 04:52:37;;;;;;;0.10;0.10;;;11.10;99.90;;;;;;5033626;28;20026;-72
2022/05/31 04:55:03;;;;;;;0.10;0.10;;;11.10;99.90;;;;;;5035212;28;20051;-72
2022/05/31 04:57:29;;;;;;;0.10;0.10;;;11.00;99.90;;;;;;5034826;28;20037;-72
2022/05/31 04:59:54;;;;;;;0.10;0.10;;;11.10;99.90;;;;;;5034700;28;20440;-72
2022/05/31 05:02:20;;;;;;;0.20;0.20;;;11.30;99.90;;;;;;5034511;28;20030;-72
2022/05/31 05:04:46;;;;;;;0.32;0.32;;;11.40;99.90;;;;;;5033417;28;20053;-72
2022/05/31 05:07:12;;;;;;;0.20;0.20;;;11.60;99.90;;;;;;5034486;28;20107;-72
2022/05/31 05:09:38;;;;;;;0.20;0.20;;;11.80;99.90;;;;;;5035175;28;20029;-72
2022/05/31 05:12:04;;;;;;;0.20;0.20;;;11.70;99.90;;;;;;5034338;28;20079;-72
2022/05/31 05:14:30;;;;;;;0.20;0.20;;;11.80;99.90;;;;;;5034395;28;20038;-72
2022/05/31 05:16:56;;;;;;;0.47;0.47;;;11.90;99.90;;;;;;5033191;28;20041;-72
2022/05/31 05:19:22;;;;;;;0.20;0.20;;;12.00;99.90;;;;;;5033207;28;20031;-72
2022/05/31 05:21:48;;;;;;;0.20;0.20;;;12.00;99.90;;;;;;5034582;28;20025;-73
2022/05/31 05:24:13;;;;;;;0.20;0.20;;;12.10;99.90;;;;;;5034202;28;20071;-72
2022/05/31 05:26:39;;;;;;;0.10;0.10;;;12.30;99.90;;;;;;5033755;28;20057;-72
2022/05/31 05:31:56;;;;;;;0.20;0.20;;;12.50;99.90;;;;;;5033998;28;20473;-74
2022/05/31 05:34:22;;;;;;;0.20;0.20;;;12.30;99.90;;;;;;5034025;28;20057;-72
2022/05/31 05:36:48;;;;;;;0.17;0.17;;;12.30;99.90;;;;;;5034571;28;20109;-72
2022/05/31 05:39:14;;;;;;;0.10;0.10;;;12.30;99.90;;;;;;5032955;28;20032;-72
2022/05/31 05:41:40;;;;;;;1.98;1.90;;;12.30;99.90;;;;;;5034215;28;20018;-73
2022/05/31 05:44:07;;;;;;;0.20;0.20;;;12.30;99.90;;;;;;5032717;28;20083;-73
2022/05/31 05:46:35;;;;;;;0.20;0.20;;;12.30;99.90;;;;;;5032742;28;20041;-73
2022/05/31 05:49:01;;;;;;;0.10;0.10;;;12.40;99.90;;;;;;5015757;28;20017;-72
2022/05/31 05:51:29;;;;;;;0.20;0.20;;;12.50;99.90;;;;;;5033549;28;20048;-72
2022/05/31 05:53:55;;;;;;;0.57;0.57;;;12.70;99.90;;;;;;5034177;28;20029;-73
2022/05/31 05:56:22;;;;;;;0.20;0.20;;;12.70;99.90;;;;;;5033981;28;20558;-73
2022/05/31 05:58:48;;;;;;;0.40;0.40;;;12.60;99.90;;;;;;5033886;28;20499;-73
2022/05/31 06:01:30;;;;;;;0.20;0.20;;;12.60;99.90;;;;;;5033937;28;20033;-73
2022/05/31 06:04:20;;;;;;;0.20;0.20;;;12.50;99.90;;;;;;5033310;28;20028;-73
2022/05/31 06:06:47;;;;;;;0.20;0.20;;;12.70;99.90;;;;;;5033328;28;20101;-73
2022/05/31 06:09:17;;;;;;;0.20;0.20;;;13.10;99.90;;;;;;5033175;28;20025;-72
2022/05/31 06:11:49;;;;;;;0.20;0.20;;;13.30;99.90;;;;;;5033235;28;20071;-72
2022/05/31 06:14:23;;;;;;;0.10;0.10;;;13.50;99.90;;;;;;5033403;28;20029;-73
2022/05/31 06:17:03;;;;;;;0.20;0.20;;;13.50;99.90;;;;;;5033536;28;20041;-73
2022/05/31 06:19:34;;;;;;;0.10;0.10;;;13.70;99.90;;;;;;5032945;28;20037;-73
2022/05/31 06:22:02;;;;;;;0.10;0.10;;;13.80;99.90;;;;;;5033925;28;20480;-73
2022/05/31 06:24:31;;;;;;;0.20;0.20;;;13.80;99.90;;;;;;5032357;28;20029;-72
2022/05/31 06:26:56;;;;;;;0.20;0.20;;;13.90;99.90;;;;;;5032921;28;20404;-73
2022/05/31 06:29:22;;;;;;;0.20;0.20;;;14.10;99.90;;;;;;5032743;28;20036;-72
2022/05/31 06:31:48;;;;;;;0.20;0.20;;;14.10;99.90;;;;;;5031660;28;20163;-72
2022/05/31 06:34:15;;;;;;;0.15;0.15;;;14.20;99.90;;;;;;5031594;28;20503;-73
2022/05/31 06:36:41;;;;;;;0.35;0.30;;;14.30;99.90;;;;;;5031568;28;20108;-73
2022/05/31 06:39:08;;;;;;;0.10;0.10;;;14.40;99.90;;;;;;5032717;28;20099;-73
2022/05/31 06:41:35;;;;;;;0.10;0.10;;;14.50;99.90;;;;;;5033151;28;20021;-73
2022/05/31 06:44:01;;;;;;;0.10;0.10;;;14.60;99.90;;;;;;5030286;28;20057;-73
2022/05/31 06:46:28;;;;;;;0.20;0.20;;;14.60;99.90;;;;;;5031285;28;20392;-72
2022/05/31 06:48:53;;;;;;;0.15;0.15;;;14.70;99.90;;;;;;5032763;28;20026;-73
2022/05/31 06:56:54;;;;;;;0.63;0.63;;;14.90;99.90;;;;;;5032443;28;20022;-72
2022/05/31 06:59:19;;;;;;;0.15;0.15;;;15.20;99.90;;;;;;5032468;28;20481;-72
2022/05/31 07:01:47;;;;;;;0.20;0.20;;;15.40;99.90;;;;;;5032615;28;20056;-75
2022/05/31 07:04:13;;;;;;;0.10;0.10;;;15.40;99.90;;;;;;5031869;28;20029;-72
2022/05/31 07:06:39;;;;;;;0.10;0.10;;;15.30;99.90;;;;;;5032482;28;20025;-71
2022/05/31 07:09:05;;;;;;;0.10;0.10;;;15.30;99.90;;;;;;5031942;28;20160;-72
2022/05/31 07:11:31;;;;;;;0.30;0.30;;;15.30;99.90;;;;;;5032197;28;20032;-69
2022/05/31 07:13:57;;;;;;;0.20;0.20;;;15.30;99.90;;;;;;5032492;28;20493;-72
2022/05/31 07:16:23;;;;;;;0.10;0.10;;;15.40;99.90;;;;;;5029640;28;20427;-71
2022/05/31 07:18:49;;;;;;;0.20;0.20;;;15.30;99.90;;;;;;5028290;28;20041;-71
2022/05/31 07:21:15;;;;;;;0.10;0.10;;;15.30;99.90;;;;;;5027225;28;20036;-71
2022/05/31 07:23:41;;;;;;;0.30;0.30;;;15.50;99.90;;;;;;5027186;28;20034;-72
2022/05/31 07:26:08;;;;;;;0.10;0.10;;;15.60;99.90;;;;;;5028445;28;20389;-72
2022/05/31 07:28:33;;;;;;;0.10;0.10;;;15.60;99.90;;;;;;5027240;28;20070;-72
2022/05/31 07:31:00;;;;;;;0.52;0.52;;;15.60;99.90;;;;;;5026990;28;20038;-72
2022/05/31 07:33:26;;;;;;;0.10;0.10;;;15.80;99.90;;;;;;5028508;28;20056;-72
2022/05/31 07:35:52;;;;;;;1.38;1.27;;;16.00;99.90;;;;;;5027175;28;20393;-72
2022/05/31 07:38:23;;;;;;;0.10;0.10;;;16.20;99.90;;;;;;5028506;28;20037;-72
2022/05/31 07:40:49;;;;;;;0.20;0.20;;;16.30;99.90;;;;;;5028847;28;20068;-73
2022/05/31 07:43:15;;;;;;;0.10;0.10;;;16.50;99.90;;;;;;5028329;28;20045;-72
2022/05/31 07:45:41;;;;;;;0.47;0.45;;;16.90;99.90;;;;;;5028386;28;20125;-72
2022/05/31 07:48:07;;;;;;;0.00;0.00;;;17.00;99.90;;;;;;5028389;28;20592;-72
2022/05/31 07:50:34;;;;;;;0.10;0.10;;;17.00;99.90;;;;;;5028492;28;20033;-72
2022/05/31 07:53:01;;;;;;;0.10;0.10;;;17.10;99.90;;;;;;5028320;28;20112;-72
2022/05/31 07:55:28;;;;;;;0.10;0.10;;;17.30;99.90;;;;;;5029987;28;20033;-72
2022/05/31 08:00:40;;;;;;;0.13;0.13;;;17.90;99.90;;;;;;5032296;28;20033;-72
2022/05/31 08:03:07;;;;;;;0.10;0.10;;;18.10;99.50;;;;;;5032588;28;20040;-72
2022/05/31 08:05:36;;;;;;;0.10;0.10;;;18.30;99.60;;;;;;5032335;28;20026;-72
2022/05/31 08:08:02;;;;;;;0.10;0.10;;;18.20;98.00;;;;;;5032213;28;20025;-72
2022/05/31 08:10:29;;;;;;;1.33;0.50;;;18.30;98.10;;;;;;5032139;28;20101;-72
2022/05/31 08:12:55;;;;;;;0.30;0.30;;;18.30;96.20;;;;;;5031958;28;20029;-72
2022/05/31 08:15:20;;;;;;;0.10;0.10;;;17.90;95.90;;;;;;5030336;28;20029;-72
2022/05/31 08:17:46;;;;;;;0.10;0.10;;;18.00;96.90;;;;;;5030394;28;20037;-72
2022/05/31 08:20:16;;;;;;;0.10;0.10;;;18.50;96.70;;;;;;5030632;28;20472;-72
2022/05/31 08:22:43;;;;;;;0.10;0.10;;;18.70;96.30;;;;;;5013956;28;20034;-72
2022/05/31 08:25:09;;;;;;;0.20;0.20;;;18.90;94.70;;;;;;5031926;28;20057;-72
2022/05/31 08:27:36;;;;;;;0.10;0.10;;;18.80;94.90;;;;;;5031586;28;20033;-71
2022/05/31 08:30:03;;;;;;;0.10;0.10;;;18.70;95.10;;;;;;5032243;28;20025;-72
2022/05/31 08:32:30;;;;;;;0.68;0.68;;;18.30;95.80;;;;;;5031690;28;20029;-72
2022/05/31 08:34:56;;;;;;;0.30;0.30;;;18.30;96.40;;;;;;5032463;28;20045;-72
2022/05/31 08:37:22;;;;;;;0.10;0.10;;;18.50;96.00;;;;;;5030223;28;20038;-72
2022/05/31 08:39:48;;;;;;;0.10;0.10;;;18.40;96.50;;;;;;5032375;28;20397;-72
2022/05/31 08:42:26;;;;;;;1.20;1.20;;;18.70;96.10;;;;;;5031844;28;20025;-72
2022/05/31 08:45:04;;;;;;;0.20;0.20;;;18.80;95.80;;;;;;5032290;28;20021;-72
2022/05/31 08:47:38;;;;;;;0.10;0.10;;;19.10;94.10;;;;;;5031557;28;20033;-72
2022/05/31 08:53:26;;;;;;;0.15;0.15;;;19.00;94.30;;;;;;5031519;28;20029;-71
2022/05/31 08:58:43;;;;;;;0.30;0.30;;;19.50;92.50;;;;;;5031226;28;20485;-72
2022/05/31 09:01:12;;;;;;;1.45;0.40;;;19.90;92.30;;;;;;5031256;28;20037;-72
2022/05/31 09:03:48;;;;;;;0.38;0.38;;;20.10;91.60;;;;;;5031308;28;20037;-72
2022/05/31 09:06:19;;;;;;;0.10;0.10;;;20.10;90.50;;;;;;5030227;28;20025;-72
2022/05/31 09:08:47;;;;;;;0.00;0.00;;;20.50;90.70;;;;;;5030450;28;20033;-73
2022/05/31 09:11:20;;;;;;;0.03;0.03;;;20.60;90.80;;;;;;5027393;28;20102;-73
2022/05/31 09:13:54;;;;;;;0.20;0.20;;;21.10;87.80;;;;;;5031156;28;20040;-72
2022/05/31 09:16:33;;;;;;;0.10;0.10;;;21.30;84.80;;;;;;5029778;28;20452;-72
2022/05/31 09:19:04;;;;;;;0.47;0.47;;;21.60;82.70;;;;;;5030852;28;20060;-72
2022/05/31 09:21:56;;;;;;;0.10;0.10;;;21.70;80.20;;;;;;5030616;28;20485;-72
2022/05/31 09:24:22;;;;;;;0.00;0.00;;;22.00;82.50;;;;;;5025616;28;20071;-73
2022/05/31 09:27:11;;;;;;;0.65;0.28;;;22.10;81.00;;;;;;5028684;28;20477;-73
2022/05/31 09:30:01;;;;;;;0.10;0.10;;;21.90;80.30;;;;;;5026760;28;20032;-73
2022/05/31 09:33:24;;;;;;;0.10;0.10;;;22.00;79.10;;;;;;5024743;28;20489;-73
2022/05/31 09:36:09;;;;;;;0.00;0.00;;;22.10;77.90;;;;;;4955768;28;20039;-73
2022/05/31 09:38:56;;;;;;;0.73;0.10;;;21.90;77.30;;;;;;4955141;28;20598;-73
2022/05/31 09:41:26;;;;;;;0.32;0.32;;;21.90;75.80;;;;;;5008251;28;20752;-73
2022/05/31 09:44:22;;;;;;;0.10;0.10;;;21.70;75.70;;;;;;5026154;28;20029;-73
2022/05/31 09:47:02;;;;;;;0.65;0.38;;;22.50;75.90;;;;;;5025833;28;20104;-73
2022/05/31 09:49:50;;;;;;;0.45;0.40;;;22.90;73.00;;;;;;5027061;28;20028;-72
2022/05/31 09:52:38;;;;;;;0.00;0.00;;;22.80;70.20;;;;;;5026521;28;20071;-73
2022/05/31 09:58:15;;;;;;;0.10;0.10;;;23.00;70.00;;;;;;5022375;28;20470;-76
2022/05/31 10:01:22;;;;;;;0.20;0.20;;;23.50;69.00;;;;;;5022979;28;20033;-76
2022/05/31 10:03:53;;;;;;;0.10;0.10;;;24.00;66.40;;;;;;4993954;28;20394;-75
2022/05/31 10:06:27;;;;;;;0.10;0.10;;;24.10;65.80;;;;;;5022288;28;20040;-74
2022/05/31 10:08:55;;;;;;;0.00;0.00;;;24.60;64.20;;;;;;5021240;28;20061;-73
2022/05/31 10:11:37;;;;;;;0.00;0.00;;;24.60;61.60;;;;;;5021328;28;20037;-74
2022/05/31 10:14:22;;;;;;;6.00;1.38;;;24.40;60.00;;;;;;5021986;28;20025;-75
2022/05/31 10:16:49;;;;;;;0.08;0.08;;;24.50;59.70;;;;;;5022624;28;20036;-75
2022/05/31 10:19:28;;;;;;;0.10;0.10;;;24.50;59.40;;;;;;5020064;28;20025;-75
2022/05/31 10:21:56;;;;;;;0.20;0.20;;;24.90;57.90;;;;;;5021642;28;20029;-75
2022/05/31 10:24:26;;;;;;;0.00;0.00;;;24.80;55.60;;;;;;5021933;28;20034;-74
2022/05/31 10:27:21;;;;;;;0.13;0.13;;;25.10;58.40;;;;;;5021978;28;20026;-74
2022/05/31 10:30:08;;;;;;;0.00;0.00;;;24.90;57.00;;;;;;5003996;28;20027;-75
2022/05/31 10:32:53;;;;;;;0.10;0.08;;;24.60;58.60;;;;;;5020526;28;20033;-73
2022/05/31 10:35:29;;;;;;;0.05;0.00;;;25.10;58.60;;;;;;5020744;28;20401;-74
2022/05/31 10:38:18;;;;;;;0.00;0.00;;;25.00;59.50;;;;;;5020342;28;20560;-75
2022/05/31 10:40:59;;;;;;;0.00;0.00;;;24.70;58.40;;;;;;5003363;28;20087;-74
2022/05/31 10:43:46;;;;;;;0.10;0.10;;;25.20;58.70;;;;;;5020463;28;20091;-74
2022/05/31 10:46:21;;;;;;;0.47;0.03;;;25.60;55.40;;;;;;5020488;28;20032;-75
2022/05/31 10:48:52;;;;;;;0.00;0.00;;;25.60;54.30;;;;;;5018377;28;20074;-75
2022/05/31 10:51:50;;;;;;;0.10;0.10;;;25.80;55.50;;;;;;5020082;28;20123;-75
2022/05/31 10:54:25;;;;;;;0.10;0.10;;;25.80;52.60;;;;;;5019087;28;20188;-75
2022/05/31 10:57:03;;;;;;;0.00;0.00;;;25.80;52.60;;;;;;5021096;28;20099;-75
2022/05/31 10:59:39;;;;;;;0.00;0.00;;;25.80;53.00;;;;;;5019353;28;20128;-75
2022/05/31 11:02:33;;;;;;;0.20;0.10;;;25.20;53.70;;;;;;5021198;28;20339;-75
2022/05/31 11:05:15;;;;;;;0.00;0.00;;;25.20;51.30;;;;;;5020974;28;20021;-75
2022/05/31 11:13:40;;;;;;;0.32;0.20;;;25.70;49.20;;;;;;5019307;28;20096;-74
2022/05/31 11:16:44;;;;;;;0.40;0.40;;;26.00;47.80;;;;;;5020645;28;20091;-75
2022/05/31 11:19:33;;;;;;;0.00;0.00;;;26.20;46.00;;;;;;4982426;28;20048;-74
2022/05/31 11:22:15;;;;;;;3.58;3.30;;;26.40;47.40;;;;;;5021484;28;20528;-75
2022/05/31 11:25:05;;;;;;;2.28;0.88;;;26.60;45.70;;;;;;5021083;28;20027;-75
2022/05/31 11:28:02;;;;;;;0.30;0.30;;;26.60;44.50;;;;;;5003063;28;20120;-74
2022/05/31 11:30:38;;;;;;;0.00;0.00;;;26.40;46.50;;;;;;5022370;28;20025;-75
2022/05/31 11:33:29;;;;;;;0.15;0.15;;;26.20;46.20;;;;;;5029735;28;20566;-74
2022/05/31 11:36:14;;;;;;;0.10;0.10;;;25.70;46.40;;;;;;5021515;28;20497;-75
2022/05/31 11:38:49;;;;;;;0.00;0.00;;;25.70;46.40;;;;;;5020505;28;20041;-75
2022/05/31 11:41:41;;;;;;;0.10;0.10;;;26.00;46.30;;;;;;5035394;28;20081;-74
2022/05/31 11:44:33;;;;;;;0.03;0.03;;;26.20;45.50;;;;;;5015943;28;20021;-76
2022/05/31 11:47:17;;;;;;;;;;;26.30;46.70;;;;;;5007622;28;20042;-75
2022/05/31 11:50:24;;;;;;;0.00;0.00;;;26.10;46.70;;;;;;5019866;28;19937;-76
2022/05/31 11:52:53;;;;;;;1.13;1.02;;;25.60;46.70;;;;;;4997928;28;20040;-76
2022/05/31 11:55:30;;;;;;;0.00;0.00;;;25.50;46.50;;;;;;5016927;28;20497;-76
2022/05/31 11:58:04;;;;;;;0.00;0.00;;;25.70;46.80;;;;;;5017951;28;20025;-76
2022/05/31 12:01:03;;;;;;;0.00;0.00;;;26.00;46.30;;;;;;5021405;28;20393;-76
2022/05/31 12:03:33;;;;;;;0.25;0.25;;;26.00;45.60;;;;;;5005897;28;20130;-75
2022/05/31 12:06:13;;;;;;;0.00;0.00;;;25.80;45.90;;;;;;5026984;28;20495;-75
2022/05/31 12:08:51;;;;;;;1.55;0.82;;;25.40;47.60;;;;;;5027865;28;20480;-75
2022/05/31 12:11:40;;;;;;;0.28;0.28;;;25.30;46.70;;;;;;5028178;28;20030;-75
2022/05/31 12:14:09;;;;;;;0.00;0.00;;;25.10;48.00;;;;;;5009632;28;20064;-75
2022/05/31 12:16:36;;;;;;;0.00;0.00;;;24.90;48.80;;;;;;5021929;28;20802;-76
2022/05/31 12:19:10;;;;;;;0.68;0.68;;;24.80;47.80;;;;;;5020168;28;20029;-73
2022/05/31 12:21:46;;;;;;;0.00;0.00;;;24.70;48.60;;;;;;5019924;28;20034;-75
2022/05/31 12:24:21;;;;;;;0.32;0.10;;;24.90;48.80;;;;;;5002776;28;20063;-74
2022/05/31 12:27:01;;;;;;;0.10;0.10;;;24.60;48.20;;;;;;5021059;28;20036;-75
2022/05/31 12:29:39;;;;;;;0.28;0.28;;;24.50;48.60;;;;;;5018247;28;20030;-75
2022/05/31 12:32:20;;;;;;;0.00;0.00;;;24.40;50.20;;;;;;5002016;28;20029;-74
2022/05/31 12:34:47;;;;;;;2.70;1.17;;;24.20;49.60;;;;;;5022849;28;20025;-74
2022/05/31 12:37:14;;;;;;;0.20;0.20;;;24.10;50.70;;;;;;5025103;28;20033;-75
2022/05/31 12:39:43;;;;;;;0.60;0.28;;;24.20;50.40;;;;;;5024131;28;20029;-74
2022/05/31 12:42:15;;;;;;;0.30;0.30;;;24.00;50.10;;;;;;5023073;28;20064;-75
2022/05/31 12:44:46;;;;;;;0.10;0.10;;;24.00;49.90;;;;;;5024212;28;20079;-75
2022/05/31 12:47:29;;;;;;;0.05;0.05;;;24.10;50.40;;;;;;5026302;28;20033;-76
2022/05/31 12:50:05;;;;;;;0.00;0.00;;;24.30;51.30;;;;;;5026618;28;20479;-75
2022/05/31 12:55:21;;;;;;;0.30;0.30;;;24.70;50.30;;;;;;5026682;28;20670;-75
2022/05/31 13:01:13;;;;;;;0.20;0.20;;;24.60;51.30;;;;;;5025189;28;20060;-74
2022/05/31 13:03:42;;;;;;;0.38;0.38;;;24.40;50.30;;;;;;4991362;28;20053;-73
2022/05/31 13:06:29;;;;;;;0.10;0.10;;;24.30;50.60;;;;;;5023206;28;20524;-74
2022/05/31 13:09:32;;;;;;;0.38;0.28;;;24.30;50.60;;;;;;5021130;28;20408;-74
2022/05/31 13:20:44;;;;;;;0.20;0.20;;;23.60;51.20;;;;;;5022797;28;20017;-74
2022/05/31 13:23:13;;;;;;;0.10;0.10;;;23.80;51.30;;;;;;5022099;28;20043;-75
2022/05/31 13:26:01;;;;;;;0.00;0.00;;;24.00;51.80;;;;;;5021260;28;20393;-74
2022/05/31 13:28:40;;;;;;;1.45;0.20;;;24.20;50.60;;;;;;5023990;28;20054;-72
2022/05/31 13:31:21;;;;;;;0.00;0.00;;;24.40;50.60;;;;;;5022710;28;20079;-73
2022/05/31 13:34:00;;;;;;;1.30;0.50;;;24.40;50.00;;;;;;5022375;28;20038;-73
2022/05/31 13:36:29;;;;;;;0.20;0.20;;;24.30;50.10;;;;;;5022043;28;20033;-73
2022/05/31 13:39:01;;;;;;;0.10;0.10;;;24.30;50.60;;;;;;5021114;28;20038;-74
2022/05/31 13:41:28;;;;;;;0.08;0.08;;;24.30;50.70;;;;;;5022800;28;20036;-74
2022/05/31 13:44:00;;;;;;;0.00;0.00;;;24.50;50.80;;;;;;5021445;28;20030;-74
2022/05/31 13:46:31;;;;;;;0.00;0.00;;;24.70;49.60;;;;;;5022252;28;20025;-74
2022/05/31 13:49:21;;;;;;;0.10;0.10;;;24.50;49.50;;;;;;5022361;28;20021;-74
2022/05/31 13:52:25;;;;;;;0.10;0.10;;;24.30;49.50;;;;;;5019650;28;20034;-74
2022/05/31 13:54:54;;;;;;;0.05;0.00;;;24.00;50.10;;;;;;5015960;28;20096;-74
2022/05/31 13:57:24;;;;;;;0.10;0.10;;;23.70;50.60;;;;;;5019877;28;20044;-74